Time;durP1;ratioP1;P1;durP2;ratioP2;P2;SDS_P1;SDS_P2;PMS_P1;PMS_P2;Temp;Humidity;BMP_temperature;BMP_pressure;BME280_temperature;BME280_humidity;BME280_pressure;Samples;Min_cycle;Max_cycle;Signal;HPM_P1;HPM_P2
2020/12/09 00:01:48;;;;;;;;;;;;;;;0.33;97.51;98156.72;5042826;28;19917;-80
2020/12/09 00:04:13;;;;;;;;;;;;;;;0.29;97.61;98153.34;5058502;28;19952;-80
2020/12/09 00:06:39;;;;;;;;;;;;;;;0.58;97.03;98162.50;5045200;28;19912;-79
2020/12/09 00:09:05;;;;;;;;;;;;;;;0.53;96.97;98159.16;5042522;28;20432;-80
2020/12/09 00:11:31;;;;;;;;;;;;;;;0.46;96.97;98165.09;5057384;28;19948;-79
2020/12/09 00:13:57;;;;;;;;;;;;;;;0.31;96.59;98174.44;5043712;28;19920;-80
2020/12/09 00:16:22;;;;;;;;;;;;;;;0.32;97.55;98178.69;5060356;28;19916;-79
2020/12/09 00:18:47;;;;;;;;;;;;;;;0.35;96.92;98177.81;5059390;28;20271;-80
2020/12/09 00:21:17;;;;;;;;;;;;;;;0.49;96.96;98183.66;5057427;28;19935;-80
2020/12/09 00:23:42;;;;;;;;;;;;;;;0.45;96.57;98171.00;5058632;28;19924;-80
2020/12/09 00:26:07;;;;;;;;;;;;;;;0.37;97.85;98179.50;5043462;28;20292;-80
2020/12/09 00:28:33;;;;;;;;;;;;;;;0.27;98.09;98177.84;5062052;28;20003;-80
2020/12/09 00:30:58;;;;;;;;;;;;;;;0.26;97.80;98186.28;5041112;28;19913;-79
2020/12/09 00:33:23;;;;;;;;;;;;;;;0.36;97.02;98184.56;5042477;28;20031;-80
2020/12/09 00:35:49;;;;;;;;;;;;;;;0.29;97.56;98180.38;5043421;28;19913;-81
2020/12/09 00:38:14;;;;;;;;;;;;;;;0.21;97.42;98172.81;5040502;28;19971;-81
2020/12/09 00:40:43;;;;;;;;;;;;;;;0.06;98.55;98173.69;5058520;28;19963;-79
2020/12/09 00:43:08;;;;;;;;;;;;;;;0.16;98.05;98175.38;5058337;28;19916;-80
2020/12/09 00:45:33;;;;;;;;;;;;;;;0.06;98.67;98172.88;5043847;28;19927;-80
2020/12/09 00:47:58;;;;;;;;;;;;;;;0.03;98.83;98166.13;5059736;28;19990;-80
2020/12/09 00:52:49;;;;;;;;;;;;;;;0.01;99.53;98160.22;5059781;28;19916;-80
2020/12/09 00:55:14;;;;;;;;;;;;;;;0.02;99.83;98163.59;5059696;28;19917;-80
2020/12/09 00:57:40;;;;;;;;;;;;;;;0.02;99.84;98158.53;5041910;28;19932;-80
2020/12/09 01:00:08;;;;;;;;;;;;;;;0.29;99.21;98158.41;5040210;28;19932;-80
2020/12/09 01:02:34;;;;;;;;;;;;;;;0.17;100.00;98161.00;5058399;28;20271;-80
2020/12/09 01:04:59;;;;;;;;;;;;;;;0.20;99.35;98173.66;5059540;28;19938;-80
2020/12/09 01:07:25;;;;;;;;;;;;;;;0.17;98.51;98171.13;5060599;28;20289;-79
2020/12/09 01:09:50;;;;;;;;;;;;;;;0.18;97.75;98182.94;5059415;28;19913;-80
2020/12/09 01:12:16;;;;;;;;;;;;;;;0.33;98.04;98187.13;5072211;22;19994;-82
2020/12/09 01:14:41;;;;;;;;;;;;;;;0.41;97.28;98177.78;5026680;28;19947;-82
2020/12/09 01:17:06;;;;;;;;;;;;;;;0.25;98.29;98182.09;5014189;28;19909;-81
2020/12/09 01:19:32;;;;;;;;;;;;;;;0.22;98.32;98184.63;5036701;28;19921;-80
2020/12/09 01:21:57;;;;;;;;;;;;;;;0.51;98.46;98186.19;5033751;28;20002;-83
2020/12/09 01:24:22;;;;;;;;;;;;;;;0.34;97.88;98184.59;5015817;28;19924;-82
2020/12/09 01:26:48;;;;;;;;;;;;;;;0.23;98.00;98185.44;5012987;28;19931;-80
2020/12/09 01:29:13;;;;;;;;;;;;;;;0.22;97.74;98191.38;5012870;28;19917;-82
2020/12/09 01:31:39;;;;;;;;;;;;;;;0.19;98.88;98194.75;5013592;28;20004;-80
2020/12/09 01:34:04;;;;;;;;;;;;;;;0.18;98.13;98188.88;5029030;28;20338;-81
2020/12/09 01:36:29;;;;;;;;;;;;;;;0.16;97.87;98195.63;5022618;28;19917;-81
2020/12/09 01:38:55;;;;;;;;;;;;;;;0.18;98.55;98193.06;5004468;28;20008;-80
2020/12/09 01:41:24;;;;;;;;;;;;;;;0.19;97.94;98199.81;5029523;28;20381;-81
2020/12/09 01:43:49;;;;;;;;;;;;;;;0.21;97.98;98203.19;5011675;28;19920;-81
2020/12/09 01:46:15;;;;;;;;;;;;;;;0.22;98.08;98204.88;5031166;28;20282;-80
2020/12/09 01:48:41;;;;;;;;;;;;;;;0.35;98.15;98206.53;5005211;28;20181;-80
2020/12/09 01:51:06;;;;;;;;;;;;;;;0.22;98.14;98197.28;5006498;28;20413;-81
2020/12/09 01:53:31;;;;;;;;;;;;;;;0.16;98.66;98204.88;5020443;28;19932;-81
2020/12/09 01:55:57;;;;;;;;;;;;;;;0.27;98.58;98203.16;5030602;28;19921;-81
2020/12/09 01:58:22;;;;;;;;;;;;;;;0.11;98.76;98207.44;5028768;28;19975;-82
2020/12/09 02:00:47;;;;;;;;;;;;;;;-0.01;99.47;98208.31;5029374;28;19919;-80
2020/12/09 02:03:13;;;;;;;;;;;;;;;0.13;99.62;98212.50;5028877;28;20024;-79
2020/12/09 02:05:38;;;;;;;;;;;;;;;0.18;98.29;98218.38;5012859;28;19917;-80
2020/12/09 02:08:03;;;;;;;;;;;;;;;0.18;98.32;98213.31;5022186;28;19914;-80
2020/12/09 02:10:29;;;;;;;;;;;;;;;0.32;98.28;98216.66;5022066;28;19971;-81
2020/12/09 02:12:54;;;;;;;;;;;;;;;0.46;97.03;98210.69;5004050;28;19921;-81
2020/12/09 02:15:19;;;;;;;;;;;;;;;0.38;97.29;98215.78;5029115;28;19924;-79
2020/12/09 02:17:46;;;;;;;;;;;;;;;0.36;98.25;98218.31;5030798;28;19972;-79
2020/12/09 02:20:11;;;;;;;;;;;;;;;0.38;97.72;98219.16;5031366;28;19917;-81
2020/12/09 02:22:36;;;;;;;;;;;;;;;0.16;98.45;98215.88;5021784;28;19920;-78
2020/12/09 02:25:02;;;;;;;;;;;;;;;0.14;99.30;98212.50;5022817;28;20314;-79
2020/12/09 02:27:27;;;;;;;;;;;;;;;0.06;99.34;98213.38;5031166;28;19944;-79
2020/12/09 02:29:52;;;;;;;;;;;;;;;0.08;98.76;98209.16;5031965;28;19979;-79
2020/12/09 02:32:18;;;;;;;;;;;;;;;0.04;99.48;98210.00;5022261;28;20031;-79
2020/12/09 02:34:43;;;;;;;;;;;;;;;-0.06;99.85;98212.56;5013819;28;19913;-77
2020/12/09 02:37:08;;;;;;;;;;;;;;;0.11;99.76;98206.59;5032260;28;19917;-79
2020/12/09 02:39:34;;;;;;;;;;;;;;;0.15;100.00;98214.19;5019693;28;19971;-77
2020/12/09 02:42:00;;;;;;;;;;;;;;;0.19;99.81;98212.50;5030664;28;20332;-79
2020/12/09 02:44:25;;;;;;;;;;;;;;;0.32;98.79;98213.28;5021391;28;19917;-80
2020/12/09 02:46:50;;;;;;;;;;;;;;;0.38;98.69;98215.78;5032154;28;20385;-79
2020/12/09 02:49:16;;;;;;;;;;;;;;;0.46;97.83;98215.75;5014296;28;19948;-79
2020/12/09 02:51:41;;;;;;;;;;;;;;;0.37;98.27;98214.94;5005599;28;20011;-78
2020/12/09 02:54:06;;;;;;;;;;;;;;;0.33;98.34;98215.81;5030481;28;19913;-78
2020/12/09 02:56:31;;;;;;;;;;;;;;;0.45;98.38;98216.59;5031839;28;19913;-79
2020/12/09 02:58:57;;;;;;;;;;;;;;;0.38;98.62;98221.69;5021533;28;19972;-81
2020/12/09 03:01:22;;;;;;;;;;;;;;;0.40;98.38;98222.53;5031238;28;19920;-80
2020/12/09 03:03:47;;;;;;;;;;;;;;;0.23;98.99;98219.22;5020930;28;19926;-80
2020/12/09 03:06:13;;;;;;;;;;;;;;;0.29;99.51;98229.31;5029786;28;20012;-79
2020/12/09 03:08:38;;;;;;;;;;;;;;;0.33;98.65;98236.06;5031527;28;19917;-80
2020/12/09 03:11:03;;;;;;;;;;;;;;;0.40;98.69;98235.19;5030928;28;19916;-81
2020/12/09 03:13:29;;;;;;;;;;;;;;;0.48;98.50;98234.31;5005074;28;19924;-81
2020/12/09 03:15:54;;;;;;;;;;;;;;;0.28;98.27;98240.31;5031273;28;20020;-83
2020/12/09 03:18:19;;;;;;;;;;;;;;;0.30;98.71;98238.63;5031014;28;19917;-83
2020/12/09 03:20:45;;;;;;;;;;;;;;;0.33;98.44;98233.53;5030959;28;19920;-83
2020/12/09 03:23:10;;;;;;;;;;;;;;;0.42;98.01;98240.25;5002719;28;20008;-83
2020/12/09 03:25:36;;;;;;;;;;;;;;;0.47;98.22;98235.19;5022018;28;19940;-79
2020/12/09 03:28:01;;;;;;;;;;;;;;;0.51;97.33;98237.69;5032346;28;19959;-81
2020/12/09 03:30:26;;;;;;;;;;;;;;;0.53;98.08;98237.69;5005524;28;20484;-80
2020/12/09 03:32:52;;;;;;;;;;;;;;;0.51;97.64;98242.75;5029972;28;19985;-78
2020/12/09 03:35:17;;;;;;;;;;;;;;;0.52;97.55;98248.66;5030608;28;20263;-78
2020/12/09 03:37:42;;;;;;;;;;;;;;;0.46;97.17;98244.47;5032278;28;20397;-81
2020/12/09 03:40:08;;;;;;;;;;;;;;;0.39;98.43;98256.31;5002641;28;19917;-82
2020/12/09 03:42:33;;;;;;;;;;;;;;;0.20;99.44;98247.06;5029904;28;19920;-82
2020/12/09 03:44:58;;;;;;;;;;;;;;;0.40;98.70;98258.00;5030806;28;19963;-79
2020/12/09 03:47:23;;;;;;;;;;;;;;;0.41;99.64;98252.09;5032367;28;19913;-83
2020/12/09 03:49:49;;;;;;;;;;;;;;;0.50;98.98;98250.34;5003978;28;20018;-83
2020/12/09 03:52:14;;;;;;;;;;;;;;;0.23;100.00;98251.28;5019511;28;19945;-82
2020/12/09 03:54:39;;;;;;;;;;;;;;;0.18;99.90;98253.81;5030452;28;20282;-83
2020/12/09 03:57:05;;;;;;;;;;;;;;;0.33;99.22;98255.50;5030246;28;19916;-81
2020/12/09 03:59:30;;;;;;;;;;;;;;;0.46;98.54;98258.81;5013626;28;19992;-82
2020/12/09 04:01:55;;;;;;;;;;;;;;;0.41;98.67;98262.22;5006723;28;19917;-81
2020/12/09 04:04:21;;;;;;;;;;;;;;;0.39;97.97;98258.00;5004960;28;20063;-82
2020/12/09 04:06:46;;;;;;;;;;;;;;;0.48;98.56;98262.19;5019064;28;20164;-82
2020/12/09 04:09:11;;;;;;;;;;;;;;;0.42;98.74;98263.06;5019608;28;19917;-81
2020/12/09 04:11:37;;;;;;;;;;;;;;;0.43;98.30;98264.72;5019993;28;19917;-82
2020/12/09 04:14:02;;;;;;;;;;;;;;;0.52;98.83;98263.88;5019520;28;19921;-82
2020/12/09 04:16:27;;;;;;;;;;;;;;;0.47;98.29;98263.88;5020897;28;19988;-82
2020/12/09 04:18:52;;;;;;;;;;;;;;;0.39;98.69;98261.38;5018819;28;19917;-82
2020/12/09 04:21:18;;;;;;;;;;;;;;;0.48;98.00;98262.19;5001031;28;19997;-82
2020/12/09 04:23:43;;;;;;;;;;;;;;;0.48;98.63;98257.97;5029482;28;19921;-82
2020/12/09 04:26:08;;;;;;;;;;;;;;;0.45;97.71;98267.28;5029179;28;19913;-80
2020/12/09 04:28:34;;;;;;;;;;;;;;;0.61;98.16;98271.44;5014482;28;19923;-81
2020/12/09 04:30:59;;;;;;;;;;;;;;;0.48;98.63;98277.38;5029266;28;20286;-81
2020/12/09 04:33:28;;;;;;;;;;;;;;;0.49;98.53;98274.00;5001457;28;19923;-82
2020/12/09 04:35:54;;;;;;;;;;;;;;;0.48;98.53;98277.38;5027255;28;20011;-80
2020/12/09 04:38:19;;;;;;;;;;;;;;;0.51;98.15;98277.38;5028140;28;19928;-81
2020/12/09 04:40:45;;;;;;;;;;;;;;;0.50;98.06;98280.75;5010565;28;19921;-81
2020/12/09 04:43:10;;;;;;;;;;;;;;;0.56;97.79;98278.22;5011761;28;19923;-81
2020/12/09 04:45:36;;;;;;;;;;;;;;;0.35;98.26;98277.44;5026912;28;19913;-80
2020/12/09 04:48:07;;;;;;;;;;;;;;;0.50;98.34;98280.75;5010642;28;19936;-81
2020/12/09 04:50:40;;;;;;;;;;;;;;;0.48;97.82;98282.44;5043524;28;19939;-80
2020/12/09 04:53:10;;;;;;;;;;;;;;;0.50;98.65;98283.28;5010684;28;20389;-82
2020/12/09 04:55:35;;;;;;;;;;;;;;;0.58;97.96;98284.13;5027211;28;19928;-81
2020/12/09 04:58:04;;;;;;;;;;;;;;;0.34;98.71;98280.81;5011958;28;20380;-80
2020/12/09 05:00:31;;;;;;;;;;;;;;;0.46;99.33;98276.53;5027468;28;20150;-81
2020/12/09 05:03:03;;;;;;;;;;;;;;;0.52;98.96;98284.97;5003169;28;19921;-80
2020/12/09 05:05:28;;;;;;;;;;;;;;;0.41;100.00;98279.94;5011433;28;19913;-81
2020/12/09 05:07:54;;;;;;;;;;;;;;;0.44;99.82;98280.78;5026665;28;19991;-81
2020/12/09 05:10:20;;;;;;;;;;;;;;;0.58;98.77;98279.88;5010443;28;20427;-81
2020/12/09 05:12:46;;;;;;;;;;;;;;;0.57;98.33;98282.41;5010520;28;19936;-80
2020/12/09 05:15:22;;;;;;;;;;;;;;;0.69;97.15;98282.38;5028741;28;19921;-81
2020/12/09 05:18:08;;;;;;;;;;;;;;;0.70;97.56;98286.59;5017130;28;19988;-82
2020/12/09 05:20:34;;;;;;;;;;;;;;;0.72;97.54;98287.44;5042975;28;19917;-81
2020/12/09 05:23:00;;;;;;;;;;;;;;;0.72;97.09;98292.50;5012760;28;19924;-83
2020/12/09 05:25:25;;;;;;;;;;;;;;;0.81;96.38;98287.38;5027115;28;19913;-82
2020/12/09 05:27:55;;;;;;;;;;;;;;;0.88;97.04;98289.91;4997543;28;19967;-82
2020/12/09 05:30:39;;;;;;;;;;;;;;;0.74;97.36;98292.50;5015673;28;19948;-81
2020/12/09 05:33:05;;;;;;;;;;;;;;;0.71;97.37;98295.03;5001461;28;20366;-83
2020/12/09 05:35:31;;;;;;;;;;;;;;;0.81;96.96;98302.59;5013423;28;20021;-81
2020/12/09 05:38:12;;;;;;;;;;;;;;;0.93;97.13;98306.75;5012897;28;20004;-82
2020/12/09 05:40:38;;;;;;;;;;;;;;;0.95;95.70;98301.69;5028163;28;20016;-83
2020/12/09 05:43:03;;;;;;;;;;;;;;;0.77;97.24;98310.22;4995496;28;20023;-81
2020/12/09 05:45:28;;;;;;;;;;;;;;;0.75;96.81;98307.72;5012786;28;19917;-81
2020/12/09 05:48:17;;;;;;;;;;;;;;;0.66;97.65;98312.78;5012806;28;19917;-81
2020/12/09 05:51:06;;;;;;;;;;;;;;;0.67;96.77;98311.94;5026665;28;20052;-81
2020/12/09 05:53:32;;;;;;;;;;;;;;;0.73;97.27;98319.53;5015805;28;19924;-82
2020/12/09 05:56:18;;;;;;;;;;;;;;;0.62;97.80;98328.88;5017001;28;20020;-81
2020/12/09 05:58:46;;;;;;;;;;;;;;;0.66;97.36;98329.69;5014845;28;19960;-82
2020/12/09 06:01:19;;;;;;;;;;;;;;;0.58;98.34;98333.09;5030539;28;19921;-81
2020/12/09 06:03:55;;;;;;;;;;;;;;;0.46;98.48;98324.66;5014121;28;19917;-82
2020/12/09 06:06:20;;;;;;;;;;;;;;;0.60;98.28;98322.97;5016843;28;19978;-82
2020/12/09 06:08:46;;;;;;;;;;;;;;;0.68;97.02;98320.38;5031794;28;20354;-81
2020/12/09 06:11:12;;;;;;;;;;;;;;;0.56;98.18;98318.75;5000371;28;20396;-81
2020/12/09 06:13:38;;;;;;;;;;;;;;;0.33;99.18;98319.63;5029745;28;19929;-82
2020/12/09 06:16:04;;;;;;;;;;;;;;;0.37;98.61;98325.56;5030186;28;19980;-81
2020/12/09 06:18:30;;;;;;;;;;;;;;;0.28;99.34;98335.72;5014274;28;19940;-82
2020/12/09 06:20:55;;;;;;;;;;;;;;;0.60;97.76;98339.00;5031003;28;20429;-82
2020/12/09 06:23:21;;;;;;;;;;;;;;;0.59;97.90;98349.13;4999502;28;19924;-83
2020/12/09 06:25:46;;;;;;;;;;;;;;;0.47;98.12;98355.06;5013634;28;19921;-81
2020/12/09 06:28:12;;;;;;;;;;;;;;;0.52;97.58;98350.00;5017695;28;19917;-82
2020/12/09 06:30:37;;;;;;;;;;;;;;;0.51;98.07;98354.22;5030341;28;19921;-80
2020/12/09 06:33:03;;;;;;;;;;;;;;;0.48;97.79;98349.19;5013768;28;19914;-82
2020/12/09 06:35:28;;;;;;;;;;;;;;;0.56;97.46;98352.50;5015151;28;20425;-82
2020/12/09 06:38:08;;;;;;;;;;;;;;;0.51;97.30;98349.16;5002788;28;20290;-82
2020/12/09 06:40:34;;;;;;;;;;;;;;;0.54;98.25;98355.91;5031943;28;19924;-81
2020/12/09 06:43:09;;;;;;;;;;;;;;;0.40;97.44;98361.84;5019083;28;19917;-81
2020/12/09 06:45:41;;;;;;;;;;;;;;;0.46;97.85;98365.19;5019166;28;20432;-82
2020/12/09 06:48:10;;;;;;;;;;;;;;;0.51;97.55;98369.44;5031915;28;19913;-82
2020/12/09 06:50:35;;;;;;;;;;;;;;;0.47;96.68;98374.50;5016041;28;19913;-81
2020/12/09 06:53:13;;;;;;;;;;;;;;;0.57;96.73;98369.41;5030106;28;19920;-81
2020/12/09 06:55:38;;;;;;;;;;;;;;;0.43;97.94;98372.81;5015807;28;20058;-81
2020/12/09 06:58:23;;;;;;;;;;;;;;;0.46;97.00;98372.78;5029977;28;20400;-81
2020/12/09 07:01:01;;;;;;;;;;;;;;;0.48;96.80;98381.25;5007909;28;19917;-81
2020/12/09 07:03:27;;;;;;;;;;;;;;;0.45;98.04;98383.78;5014381;28;19952;-81
2020/12/09 07:05:52;;;;;;;;;;;;;;;0.40;97.53;98386.31;5030210;28;19960;-81
2020/12/09 07:08:18;;;;;;;;;;;;;;;0.46;97.17;98380.41;5014865;28;19928;-81
2020/12/09 07:10:43;;;;;;;;;;;;;;;0.45;97.53;98383.78;5022574;28;19960;-80
2020/12/09 07:13:10;;;;;;;;;;;;;;;0.38;97.43;98381.25;5029432;28;19925;-81
2020/12/09 07:15:36;;;;;;;;;;;;;;;0.33;97.14;98379.59;5013753;28;20302;-82
2020/12/09 07:18:01;;;;;;;;;;;;;;;0.13;97.96;98382.97;5014667;28;20370;-82
2020/12/09 07:20:27;;;;;;;;;;;;;;;0.38;97.56;98373.66;5015720;28;19921;-81
2020/12/09 07:22:52;;;;;;;;;;;;;;;0.30;96.65;98375.38;5015564;28;19917;-82
2020/12/09 07:25:18;;;;;;;;;;;;;;;0.09;98.65;98377.91;5013706;28;19917;-83
2020/12/09 07:27:44;;;;;;;;;;;;;;;0.30;97.87;98370.31;5013509;28;19917;-82
2020/12/09 07:30:10;;;;;;;;;;;;;;;0.29;96.91;98373.66;5013356;28;20047;-82
2020/12/09 07:32:36;;;;;;;;;;;;;;;0.16;97.99;98382.09;5030429;28;20441;-82
2020/12/09 07:35:02;;;;;;;;;;;;;;;0.12;98.58;98388.03;5030049;28;19945;-82
2020/12/09 07:37:30;;;;;;;;;;;;;;;0.17;100.00;98383.81;5029669;28;19952;-81
2020/12/09 07:39:58;;;;;;;;;;;;;;;0.01;98.55;98382.13;5015331;28;19913;-78
2020/12/09 07:42:23;;;;;;;;;;;;;;;0.09;98.15;98390.56;5029430;28;19927;-81
2020/12/09 07:44:49;;;;;;;;;;;;;;;0.04;98.35;98387.19;5029209;28;19913;-81
2020/12/09 07:47:41;;;;;;;;;;;;;;;0.25;97.73;98389.72;5028704;28;19936;-81
2020/12/09 07:50:07;;;;;;;;;;;;;;;0.00;99.45;98386.34;5029207;28;19917;-81
2020/12/09 07:52:33;;;;;;;;;;;;;;;-0.01;99.91;98374.53;5028687;28;19913;-81
2020/12/09 07:54:59;;;;;;;;;;;;;;;-0.26;99.73;98373.66;5012435;28;20034;-81
2020/12/09 07:57:37;;;;;;;;;;;;;;;-0.12;99.72;98372.00;5014379;28;19917;-81
2020/12/09 08:00:12;;;;;;;;;;;;;;;-0.12;99.36;98368.63;5013887;28;19956;-80
2020/12/09 08:02:38;;;;;;;;;;;;;;;-0.18;100.00;98382.13;5029618;28;19921;-82
2020/12/09 08:05:14;;;;;;;;;;;;;;;-0.27;100.00;98397.28;5030211;28;19923;-82
2020/12/09 08:07:50;;;;;;;;;;;;;;;-0.33;100.00;98407.41;5012732;28;20004;-79
2020/12/09 08:10:19;;;;;;;;;;;;;;;-0.02;100.00;98393.94;5031204;28;19913;-82
2020/12/09 08:12:44;;;;;;;;;;;;;;;0.05;100.00;98391.44;5013305;28;19925;-80
2020/12/09 08:15:10;;;;;;;;;;;;;;;0.14;99.09;98399.03;5029937;28;20079;-81
2020/12/09 08:17:35;;;;;;;;;;;;;;;0.23;97.21;98399.00;5008996;28;19924;-80
2020/12/09 08:20:01;;;;;;;;;;;;;;;0.30;97.12;98408.28;5029768;28;19924;-82
2020/12/09 08:22:26;;;;;;;;;;;;;;;0.23;98.10;98403.22;5030754;28;20000;-83
2020/12/09 08:25:08;;;;;;;;;;;;;;;0.32;98.90;98404.06;5029782;28;19939;-83
2020/12/09 08:27:43;;;;;;;;;;;;;;;0.43;97.67;98405.75;5014844;28;20361;-81
2020/12/09 08:30:12;;;;;;;;;;;;;;;0.57;97.82;98406.56;5013059;28;20355;-81
2020/12/09 08:32:56;;;;;;;;;;;;;;;0.58;98.97;98415.88;5029134;28;19921;-81
2020/12/09 08:35:21;;;;;;;;;;;;;;;0.46;98.08;98421.78;5031217;28;20070;-81
2020/12/09 08:37:47;;;;;;;;;;;;;;;0.66;98.24;98414.13;5029444;28;20408;-82
2020/12/09 08:40:12;;;;;;;;;;;;;;;0.83;97.45;98417.50;5031158;28;19913;-83
2020/12/09 08:42:37;;;;;;;;;;;;;;;0.62;97.01;98409.94;5031055;28;20358;-83
2020/12/09 08:45:03;;;;;;;;;;;;;;;0.73;97.16;98414.97;5013720;28;19991;-83
2020/12/09 08:47:28;;;;;;;;;;;;;;;0.86;96.78;98416.63;5010217;28;19913;-83
2020/12/09 08:49:54;;;;;;;;;;;;;;;0.93;96.49;98417.47;5013893;28;19916;-83
2020/12/09 08:52:19;;;;;;;;;;;;;;;0.88;96.97;98424.25;4999665;28;20285;-81
2020/12/09 08:54:44;;;;;;;;;;;;;;;0.80;97.58;98426.81;5014047;28;19932;-81
2020/12/09 08:57:10;;;;;;;;;;;;;;;0.89;98.40;98436.06;5029481;28;19943;-81
2020/12/09 08:59:35;;;;;;;;;;;;;;;0.57;100.00;98429.34;5030191;28;20019;-81
2020/12/09 09:02:00;;;;;;;;;;;;;;;0.82;98.19;98413.28;5030731;28;20003;-82
2020/12/09 09:04:31;;;;;;;;;;;;;;;0.85;98.78;98414.13;5014976;28;20224;-83
2020/12/09 09:06:56;;;;;;;;;;;;;;;0.86;99.96;98423.41;5030091;28;20500;-82
2020/12/09 09:09:21;;;;;;;;;;;;;;;0.82;98.56;98436.09;5030938;28;19913;-83
2020/12/09 09:11:47;;;;;;;;;;;;;;;0.82;100.00;98428.50;5030837;28;19948;-83
2020/12/09 09:14:12;;;;;;;;;;;;;;;0.63;100.00;98426.81;5013101;28;19913;-82
2020/12/09 09:16:37;;;;;;;;;;;;;;;0.77;100.00;98425.09;5029214;28;20451;-83
2020/12/09 09:19:03;;;;;;;;;;;;;;;0.83;100.00;98424.25;5014585;28;20058;-81
2020/12/09 09:21:34;;;;;;;;;;;;;;;1.00;99.71;98425.06;5029232;28;19917;-83
2020/12/09 09:23:59;;;;;;;;;;;;;;;1.14;98.55;98427.56;4999256;28;19917;-84
2020/12/09 09:26:27;;;;;;;;;;;;;;;1.03;99.50;98435.19;5015412;28;20397;-84
2020/12/09 09:28:52;;;;;;;;;;;;;;;1.14;99.98;98437.72;5005166;28;19917;-82
2020/12/09 09:31:17;;;;;;;;;;;;;;;1.15;100.00;98430.94;5032278;28;19932;-82
2020/12/09 09:33:42;;;;;;;;;;;;;;;1.21;97.84;98426.69;5018341;28;19944;-82
2020/12/09 09:36:08;;;;;;;;;;;;;;;1.21;96.98;98439.38;5003503;28;19917;-83
2020/12/09 09:38:33;;;;;;;;;;;;;;;1.39;98.06;98435.94;5002147;28;19921;-83
2020/12/09 09:40:58;;;;;;;;;;;;;;;1.51;96.66;98437.56;5019711;28;20024;-84
2020/12/09 09:43:24;;;;;;;;;;;;;;;1.60;97.53;98446.81;5016651;28;20418;-84
2020/12/09 09:45:49;;;;;;;;;;;;;;;1.57;99.40;98462.03;5004556;28;19913;-84
2020/12/09 09:48:15;;;;;;;;;;;;;;;1.55;97.86;98457.00;5034073;28;20273;-84
2020/12/09 09:50:40;;;;;;;;;;;;;;;1.32;99.50;98471.44;5032983;28;20007;-84
2020/12/09 09:53:05;;;;;;;;;;;;;;;1.30;100.00;98468.06;5004248;28;19917;-82
2020/12/09 09:55:31;;;;;;;;;;;;;;;1.40;100.00;98460.44;5018574;28;19921;-82
2020/12/09 09:57:56;;;;;;;;;;;;;;;1.44;99.81;98456.19;5019604;28;19928;-83
2020/12/09 10:00:22;;;;;;;;;;;;;;;1.35;98.68;98457.06;5019044;28;19916;-82
2020/12/09 10:02:47;;;;;;;;;;;;;;;1.20;100.00;98460.50;5019446;28;20334;-83
2020/12/09 10:05:12;;;;;;;;;;;;;;;0.90;100.00;98463.13;5005966;28;19917;-84
2020/12/09 10:07:37;;;;;;;;;;;;;;;0.89;100.00;98462.28;5035950;28;19913;-84
2020/12/09 10:10:03;;;;;;;;;;;;;;;0.72;100.00;98464.81;5002868;28;20000;-83
2020/12/09 10:12:31;;;;;;;;;;;;;;;1.01;100.00;98463.94;5017117;28;20333;-82
2020/12/09 10:14:56;;;;;;;;;;;;;;;1.29;100.00;98471.47;5033506;28;19917;-84
2020/12/09 10:17:21;;;;;;;;;;;;;;;1.35;100.00;98474.00;5010014;28;19927;-84
2020/12/09 10:19:46;;;;;;;;;;;;;;;1.32;100.00;98453.69;5003720;28;19917;-84
2020/12/09 10:22:12;;;;;;;;;;;;;;;1.15;100.00;98464.75;5002820;28;19987;-84
2020/12/09 10:24:38;;;;;;;;;;;;;;;0.89;100.00;98461.41;5032736;28;19917;-84
2020/12/09 10:27:03;;;;;;;;;;;;;;;0.91;100.00;98460.56;5000838;28;19913;-83
2020/12/09 10:29:28;;;;;;;;;;;;;;;0.96;100.00;98456.34;5035177;28;20025;-84
2020/12/09 10:31:54;;;;;;;;;;;;;;;1.22;100.00;98461.34;5034073;28;19926;-83
2020/12/09 10:34:19;;;;;;;;;;;;;;;1.39;100.00;98468.03;5019879;28;19927;-83
2020/12/09 10:36:49;;;;;;;;;;;;;;;1.63;100.00;98462.88;5022242;28;19932;-81
2020/12/09 10:39:14;;;;;;;;;;;;;;;1.73;100.00;98462.81;5003934;28;19921;-82
2020/12/09 10:41:40;;;;;;;;;;;;;;;1.87;99.94;98458.50;5019165;28;19963;-82
2020/12/09 10:44:05;;;;;;;;;;;;;;;1.83;100.00;98450.06;5019253;28;19960;-84
2020/12/09 10:46:31;;;;;;;;;;;;;;;1.83;100.00;98449.25;5004518;28;19913;-83
2020/12/09 10:48:57;;;;;;;;;;;;;;;2.04;100.00;98440.63;5016109;28;20299;-82
2020/12/09 10:51:22;;;;;;;;;;;;;;;2.25;100.00;98444.72;5028894;28;20386;-83
2020/12/09 10:53:48;;;;;;;;;;;;;;;2.05;99.12;98455.88;4998925;28;19917;-83
2020/12/09 10:56:13;;;;;;;;;;;;;;;1.97;99.47;98457.59;5012435;28;20007;-81
2020/12/09 10:58:38;;;;;;;;;;;;;;;2.05;99.62;98450.78;5011977;28;20350;-82
2020/12/09 11:01:04;;;;;;;;;;;;;;;1.90;100.00;98450.88;5013530;28;19961;-83
2020/12/09 11:03:29;;;;;;;;;;;;;;;2.01;100.00;98444.03;5013854;28;20325;-83
2020/12/09 11:05:55;;;;;;;;;;;;;;;1.93;100.00;98450.00;5012492;28;19956;-82
2020/12/09 11:08:20;;;;;;;;;;;;;;;2.00;100.00;98446.59;5012244;28;20425;-82
2020/12/09 11:10:45;;;;;;;;;;;;;;;2.02;100.00;98439.78;4999355;28;19920;-83
2020/12/09 11:13:11;;;;;;;;;;;;;;;2.22;100.00;98452.38;5028192;28;19929;-82
2020/12/09 11:15:36;;;;;;;;;;;;;;;2.14;99.60;98444.78;5044799;28;19967;-83
2020/12/09 11:18:02;;;;;;;;;;;;;;;2.13;100.00;98444.81;5013733;28;20386;-81
2020/12/09 11:20:27;;;;;;;;;;;;;;;2.15;100.00;98445.66;5031236;28;19921;-82
2020/12/09 11:22:53;;;;;;;;;;;;;;;2.31;100.00;98447.22;5005803;28;20075;-82
2020/12/09 11:25:19;;;;;;;;;;;;;;;2.58;99.18;98445.28;5000270;28;20385;-82
2020/12/09 11:27:44;;;;;;;;;;;;;;;2.55;98.62;98430.91;5028408;28;20038;-82
2020/12/09 11:30:09;;;;;;;;;;;;;;;2.42;98.97;98430.19;5028407;28;20220;-82
2020/12/09 11:32:35;;;;;;;;;;;;;;;2.39;98.65;98435.28;5013608;28;20016;-82
2020/12/09 11:35:00;;;;;;;;;;;;;;;2.37;99.68;98436.97;5004252;28;19944;-82
2020/12/09 11:37:26;;;;;;;;;;;;;;;2.23;99.68;98437.09;5014060;28;19971;-82
2020/12/09 11:39:52;;;;;;;;;;;;;;;2.28;100.00;98432.84;5011455;28;20003;-82
2020/12/09 11:42:17;;;;;;;;;;;;;;;2.21;100.00;98427.78;5013497;28;19921;-83
2020/12/09 11:44:43;;;;;;;;;;;;;;;2.31;100.00;98424.34;5028203;28;20333;-82
2020/12/09 11:47:09;;;;;;;;;;;;;;;2.35;100.00;98418.38;5028718;28;19921;-83
2020/12/09 11:49:34;;;;;;;;;;;;;;;2.39;99.70;98425.09;5027965;28;19913;-82
2020/12/09 11:51:59;;;;;;;;;;;;;;;2.54;99.55;98415.69;5011308;28;19917;-82
2020/12/09 11:54:25;;;;;;;;;;;;;;;2.61;98.92;98415.59;5012776;28;19964;-82
2020/12/09 11:56:50;;;;;;;;;;;;;;;2.83;99.87;98416.25;5013003;28;19924;-83
2020/12/09 11:59:15;;;;;;;;;;;;;;;2.83;98.82;98411.16;5044308;28;20346;-82
2020/12/09 12:01:41;;;;;;;;;;;;;;;2.90;97.51;98412.78;5011568;28;19924;-83
2020/12/09 12:04:06;;;;;;;;;;;;;;;3.04;97.24;98414.34;5027923;28;19916;-82
2020/12/09 12:06:31;;;;;;;;;;;;;;;3.02;97.53;98410.97;5028012;28;19920;-81
2020/12/09 12:08:58;;;;;;;;;;;;;;;2.80;98.73;98415.41;5010263;28;19917;-81
2020/12/09 12:11:23;;;;;;;;;;;;;;;3.04;97.72;98414.34;5013605;28;19913;-81
2020/12/09 12:13:49;;;;;;;;;;;;;;;3.09;98.78;98417.66;5010354;28;19926;-80
2020/12/09 12:16:15;;;;;;;;;;;;;;;3.21;98.99;98416.66;5028937;28;20286;-80
2020/12/09 12:18:40;;;;;;;;;;;;;;;2.55;100.00;98425.81;5012338;28;20012;-81
2020/12/09 12:21:05;;;;;;;;;;;;;;;3.03;99.60;98417.72;5027322;28;20012;-80
2020/12/09 12:23:31;;;;;;;;;;;;;;;3.23;98.97;98409.84;5003922;28;19921;-81
2020/12/09 12:25:57;;;;;;;;;;;;;;;3.00;98.99;98417.75;5027445;28;19940;-80
2020/12/09 12:28:23;;;;;;;;;;;;;;;3.00;98.74;98417.75;5010511;28;19935;-81
2020/12/09 12:30:48;;;;;;;;;;;;;;;3.18;98.64;98422.63;5027639;28;20574;-81
2020/12/09 12:33:14;;;;;;;;;;;;;;;3.19;99.00;98423.47;5027362;28;19913;-81
2020/12/09 12:35:39;;;;;;;;;;;;;;;2.36;100.00;98426.84;5026911;28;20000;-81
2020/12/09 12:38:04;;;;;;;;;;;;;;;2.49;100.00;98416.56;5028348;28;19921;-80
2020/12/09 12:40:30;;;;;;;;;;;;;;;2.23;100.00;98418.47;5027701;28;19920;-80
2020/12/09 12:42:55;;;;;;;;;;;;;;;2.32;100.00;98413.31;5010926;28;20560;-81
2020/12/09 12:45:22;;;;;;;;;;;;;;;2.25;100.00;98416.75;5003928;28;19927;-80
2020/12/09 12:47:49;;;;;;;;;;;;;;;2.17;100.00;98421.09;5028544;28;19923;-82
2020/12/09 12:50:14;;;;;;;;;;;;;;;2.25;100.00;98421.84;5028428;28;20437;-79
2020/12/09 12:52:39;;;;;;;;;;;;;;;2.16;100.00;98422.75;5028365;28;20005;-81
2020/12/09 12:55:05;;;;;;;;;;;;;;;2.05;100.00;98417.78;5011222;28;19996;-79